createdAt,value
2022-12-17T00:00:02.081Z,1013.5238368601853
2022-12-17T00:15:01.712Z,1013.6355856606245
2022-12-17T00:30:02.373Z,1013.8083119264883
2022-12-17T00:45:02.030Z,1013.8698140314428
2022-12-17T01:00:01.698Z,1013.9814664845603
2022-12-17T01:15:02.346Z,1013.987012331047
2022-12-17T01:30:02.028Z,1014.1728966571344
2022-12-17T01:45:01.687Z,1014.370942843673
2022-12-17T02:00:02.343Z,1014.5573276029542
2022-12-17T02:15:02.002Z,1014.7249657556617
2022-12-17T02:30:01.672Z,1014.8752348700987
2022-12-17T02:45:02.352Z,1014.99948011846
2022-12-17T03:00:02.021Z,1014.9116205383635
2022-12-17T03:15:01.733Z,1015.0254740997084
2022-12-17T03:30:01.406Z,1015.008391586112
2022-12-17T03:45:02.096Z,1015.0169719286
2022-12-17T04:00:01.752Z,1015.0575518761138
2022-12-17T04:15:01.408Z,1015.0957487665468
2022-12-17T04:30:02.095Z,1015.3023757613665
2022-12-17T04:45:01.782Z,1015.3229156681006
2022-12-17T05:00:01.438Z,1015.3866488252534
2022-12-17T05:15:02.134Z,1015.4623938453178
2022-12-17T05:30:01.873Z,1015.6213989920237
2022-12-17T05:45:01.580Z,1015.7761225084611
2022-12-17T06:00:01.255Z,1016.0484337972655
2022-12-17T06:15:01.886Z,1016.2197494525144
2022-12-17T06:30:01.569Z,1016.4224004672907
2022-12-17T06:45:01.257Z,1016.39977165605
2022-12-17T07:00:02.039Z,1016.6237693229242
2022-12-17T07:15:01.967Z,1016.7090778746643
2022-12-17T07:30:01.701Z,1016.8710905854279
2022-12-17T07:45:02.337Z,1017.0847178381578
2022-12-17T08:00:01.956Z,1017.2656518997362
2022-12-17T08:15:01.599Z,1017.3835400551054
2022-12-17T08:30:02.271Z,1017.4263311504163
2022-12-17T08:45:01.928Z,1017.5076754322408
2022-12-17T09:00:01.554Z,1017.7676671273032
2022-12-17T09:15:02.250Z,1017.8307586303487
2022-12-17T09:30:01.944Z,1017.8012031118327
2022-12-17T09:45:01.612Z,1017.7904590620725
2022-12-17T10:00:02.246Z,1018.0017810099697
2022-12-17T10:15:01.876Z,1018.2264699613021
2022-12-17T10:30:01.540Z,1018.2963188667759
2022-12-17T10:45:02.199Z,1018.1538132042144
2022-12-17T11:00:01.807Z,1018.2251062453853
2022-12-17T11:15:01.678Z,1018.3044634547782
2022-12-17T11:30:02.391Z,1018.2903204367811
2022-12-17T11:45:01.989Z,1018.2092965073567
2022-12-17T12:00:04.339Z,1018.3161473325113
2022-12-17T12:15:02.312Z,1018.2612543714406
2022-12-17T12:30:01.933Z,1018.3756065075944
2022-12-17T12:45:01.533Z,1018.3375456358516
2022-12-17T13:00:02.145Z,1018.2110029053873
2022-12-17T13:15:01.772Z,1018.1825114605169
2022-12-17T13:30:02.381Z,1018.160028409524
2022-12-17T13:45:01.987Z,1018.0648942096254
2022-12-17T14:00:01.605Z,1018.2992865904173
2022-12-17T14:15:02.238Z,1018.2263291113233
2022-12-17T14:30:01.901Z,1018.1911218764612
2022-12-17T14:45:01.575Z,1018.2455836241264
2022-12-17T15:00:02.359Z,1018.4901721226643
2022-12-17T15:15:02.017Z,1018.4384159962609
2022-12-17T15:30:01.646Z,1018.4401090248269
2022-12-17T15:45:02.280Z,1018.516488096169
2022-12-17T16:00:01.877Z,1018.4501691848684
2022-12-17T16:15:01.532Z,1018.605452192969
2022-12-17T16:30:02.238Z,1018.6187487134105
2022-12-17T16:45:01.908Z,1018.7799582443226
2022-12-17T17:00:01.536Z,1018.9477784119266
2022-12-17T17:15:02.140Z,1019.1228612817499
2022-12-17T17:30:03.981Z,1019.2498833492332
2022-12-17T17:45:01.884Z,1019.2954225771224
2022-12-17T18:00:01.523Z,1019.5159401124051
2022-12-17T18:15:16.912Z,1019.5226600589747
2022-12-17T18:30:01.637Z,1019.3478114378609
2022-12-17T18:45:01.276Z,1019.4089643559488
2022-12-17T19:00:01.895Z,1019.5098463880267
2022-12-17T19:15:01.825Z,1019.5179437744821
2022-12-17T19:30:01.546Z,1019.6796967195717
2022-12-17T19:45:02.168Z,1019.8828289421559
2022-12-17T20:00:01.779Z,1019.8862683961152
2022-12-17T20:15:01.424Z,1019.9707809661599
2022-12-17T20:30:02.118Z,1020.0479644113007
2022-12-17T20:45:01.790Z,1020.0845500653719
2022-12-17T21:00:01.461Z,1020.1951105289774
2022-12-17T21:15:02.107Z,1020.273437420424
2022-12-17T21:30:01.744Z,1020.1312753477162
2022-12-17T21:45:02.073Z,1020.1738629665756
2022-12-17T22:00:01.828Z,1020.3507158687876
2022-12-17T22:15:01.456Z,1020.5178744991614
2022-12-17T22:30:01.620Z,1020.5354537692073
2022-12-17T22:45:08.684Z,1020.4236092412843
2022-12-17T23:00:01.863Z,1020.4261757468262
2022-12-17T23:15:01.750Z,1020.4684657613184
2022-12-17T23:30:02.481Z,1020.5504218174931
2022-12-17T23:45:02.150Z,1020.5636375578505
